Time;durP1;ratioP1;P1;durP2;ratioP2;P2;SDS_P1;SDS_P2;PMS_P1;PMS_P2;Temp;Humidity;BMP_temperature;BMP_pressure;BME280_temperature;BME280_humidity;BME280_pressure;Samples;Min_cycle;Max_cycle;Signal;HPM_P1;HPM_P2
2023/02/09 00:01:33;;;;;;;17.63;9.30;;;;;;;;;;4995053;28;20034;-72
2023/02/09 00:04:01;;;;;;;15.82;8.30;;;;;;;;;;4994717;28;20035;-72
2023/02/09 00:06:29;;;;;;;16.17;9.02;;;;;;;;;;4994902;28;20077;-72
2023/02/09 00:08:55;;;;;;;14.82;7.70;;;;;;;;;;4993790;28;20106;-71
2023/02/09 00:14:16;;;;;;;16.00;8.88;;;;;;;;;;4994581;28;20065;-72
2023/02/09 00:16:42;;;;;;;17.50;9.20;;;;;;;;;;4992776;28;20031;-72
2023/02/09 00:19:08;;;;;;;22.50;11.27;;;;;;;;;;4993517;28;20594;-70
2023/02/09 00:21:34;;;;;;;20.80;10.95;;;;;;;;;;4993997;28;20200;-70
2023/02/09 00:24:00;;;;;;;23.73;12.55;;;;;;;;;;4994173;28;20662;-70
2023/02/09 00:26:26;;;;;;;21.27;10.98;;;;;;;;;;4992756;28;20030;-70
2023/02/09 00:28:52;;;;;;;20.65;10.55;;;;;;;;;;4993205;28;20027;-69
2023/02/09 00:31:18;;;;;;;23.58;11.30;;;;;;;;;;4994088;28;20397;-70
2023/02/09 00:33:44;;;;;;;21.83;11.63;;;;;;;;;;4993978;28;20034;-70
2023/02/09 00:36:11;;;;;;;20.75;10.73;;;;;;;;;;4993691;28;20041;-70
2023/02/09 00:38:37;;;;;;;22.17;11.27;;;;;;;;;;4993321;28;20030;-70
2023/02/09 00:41:03;;;;;;;22.17;11.18;;;;;;;;;;4993706;28;20472;-71
2023/02/09 00:43:29;;;;;;;20.90;10.70;;;;;;;;;;5008717;23;20118;-70
2023/02/09 00:45:55;;;;;;;17.50;9.35;;;;;;;;;;4973131;28;20042;-69
2023/02/09 00:48:22;;;;;;;17.52;9.07;;;;;;;;;;4973565;28;20022;-70
2023/02/09 00:50:49;;;;;;;21.35;10.40;;;;;;;;;;4974172;28;20027;-71
2023/02/09 00:53:16;;;;;;;18.85;8.93;;;;;;;;;;4974071;28;20110;-72
2023/02/09 00:55:42;;;;;;;18.75;10.05;;;;;;;;;;4990346;28;20034;-71
2023/02/09 00:58:08;;;;;;;20.65;10.65;;;;;;;;;;4978745;28;20105;-71
2023/02/09 01:00:34;;;;;;;22.05;10.80;;;;;;;;;;4983249;28;20038;-71
2023/02/09 01:03:00;;;;;;;18.50;10.40;;;;;;;;;;4987631;28;20045;-70
2023/02/09 01:05:26;;;;;;;24.90;12.57;;;;;;;;;;4977342;28;20421;-71
2023/02/09 01:07:52;;;;;;;23.88;12.02;;;;;;;;;;4986696;28;20027;-72
2023/02/09 01:10:18;;;;;;;26.65;13.20;;;;;;;;;;4980374;28;20467;-71
2023/02/09 01:12:44;;;;;;;24.83;13.40;;;;;;;;;;4981808;28;20030;-72
2023/02/09 01:15:10;;;;;;;29.38;13.82;;;;;;;;;;4988769;28;20038;-72
2023/02/09 01:17:36;;;;;;;28.08;14.05;;;;;;;;;;4976430;28;20035;-71
2023/02/09 01:20:03;;;;;;;26.85;13.63;;;;;;;;;;4987491;28;20031;-72
2023/02/09 01:22:29;;;;;;;30.52;15.27;;;;;;;;;;4983317;28;20034;-71
2023/02/09 01:24:55;;;;;;;30.10;14.00;;;;;;;;;;4978811;28;20081;-71
2023/02/09 01:27:21;;;;;;;24.73;13.00;;;;;;;;;;4987712;28;20088;-71
2023/02/09 01:29:47;;;;;;;29.48;13.55;;;;;;;;;;4977310;28;20448;-71
2023/02/09 01:32:13;;;;;;;27.17;14.02;;;;;;;;;;4985815;28;20034;-72
2023/02/09 01:34:39;;;;;;;24.42;12.65;;;;;;;;;;4984857;28;20497;-72
2023/02/09 01:37:05;;;;;;;28.58;13.00;;;;;;;;;;4989044;28;20034;-71
2023/02/09 01:39:31;;;;;;;26.10;11.52;;;;;;;;;;4976357;28;20062;-71
2023/02/09 01:41:57;;;;;;;25.83;11.23;;;;;;;;;;4987693;28;20030;-71
2023/02/09 01:44:23;;;;;;;25.90;13.10;;;;;;;;;;4981560;28;20042;-71
2023/02/09 01:46:49;;;;;;;23.60;12.13;;;;;;;;;;4980269;28;20030;-71
2023/02/09 01:49:16;;;;;;;26.75;13.63;;;;;;;;;;4988274;28;20022;-72
2023/02/09 01:51:53;;;;;;;24.80;12.43;;;;;;;;;;4976298;28;20074;-69
2023/02/09 01:54:25;;;;;;;29.38;12.48;;;;;;;;;;4984338;28;20036;-71
2023/02/09 01:56:56;;;;;;;25.00;12.48;;;;;;;;;;4985551;28;20374;-72
2023/02/09 01:59:22;;;;;;;25.95;11.60;;;;;;;;;;4975859;28;20138;-71
2023/02/09 02:01:48;;;;;;;26.83;11.43;;;;;;;;;;4988561;28;20500;-70
2023/02/09 02:04:14;;;;;;;24.75;11.93;;;;;;;;;;4980509;28;20030;-71
2023/02/09 02:06:41;;;;;;;25.73;10.85;;;;;;;;;;4979874;28;20111;-71
2023/02/09 02:09:11;;;;;;;24.92;11.10;;;;;;;;;;4984920;28;20098;-70
2023/02/09 02:11:38;;;;;;;24.70;11.98;;;;;;;;;;4976026;28;20022;-72
2023/02/09 02:14:04;;;;;;;21.08;10.65;;;;;;;;;;4984738;28;20037;-71
2023/02/09 02:16:30;;;;;;;23.02;11.02;;;;;;;;;;4982293;28;20027;-72
2023/02/09 02:19:14;;;;;;;24.85;10.13;;;;;;;;;;4978257;28;20034;-71
2023/02/09 02:21:48;;;;;;;25.50;11.05;;;;;;;;;;4975793;28;20041;-71
2023/02/09 02:24:20;;;;;;;25.27;12.95;;;;;;;;;;4984901;28;20031;-71
2023/02/09 02:26:49;;;;;;;25.55;11.60;;;;;;;;;;4982851;28;20033;-71
2023/02/09 02:29:18;;;;;;;22.67;10.95;;;;;;;;;;4975505;28;20430;-71
2023/02/09 02:32:03;;;;;;;21.17;11.18;;;;;;;;;;4958948;28;20026;-70
2023/02/09 02:34:48;;;;;;;23.02;11.93;;;;;;;;;;4982469;28;20022;-71
2023/02/09 02:37:14;;;;;;;26.65;10.93;;;;;;;;;;4987188;28;20026;-71
2023/02/09 02:39:53;;;;;;;26.60;12.10;;;;;;;;;;4975500;28;20639;-70
2023/02/09 02:45:23;;;;;;;22.70;12.00;;;;;;;;;;4986220;28;20554;-71
2023/02/09 02:47:54;;;;;;;23.08;11.57;;;;;;;;;;4960314;28;20050;-71
2023/02/09 02:50:22;;;;;;;20.40;11.43;;;;;;;;;;4983372;28;20722;-72
2023/02/09 02:52:50;;;;;;;26.40;11.45;;;;;;;;;;4971924;28;20102;-71
2023/02/09 02:55:18;;;;;;;25.20;12.00;;;;;;;;;;4988073;28;20026;-71
2023/02/09 02:57:46;;;;;;;23.58;11.80;;;;;;;;;;4975059;28;20026;-71
2023/02/09 03:00:14;;;;;;;27.13;12.02;;;;;;;;;;4984160;28;20437;-71
2023/02/09 03:02:42;;;;;;;26.50;12.73;;;;;;;;;;4983308;28;20436;-70
2023/02/09 03:05:09;;;;;;;25.13;11.90;;;;;;;;;;4976679;28;20626;-72
2023/02/09 03:07:35;;;;;;;22.95;11.68;;;;;;;;;;4987231;28;20491;-72
2023/02/09 03:10:01;;;;;;;29.67;12.43;;;;;;;;;;4969329;28;20497;-73
2023/02/09 03:12:33;;;;;;;30.02;13.75;;;;;;;;;;4972354;28;20466;-72
2023/02/09 03:15:11;;;;;;;26.77;12.25;;;;;;;;;;4985418;28;20462;-72
2023/02/09 03:17:47;;;;;;;25.83;13.40;;;;;;;;;;4972189;28;20090;-70
2023/02/09 03:20:37;;;;;;;24.80;11.88;;;;;;;;;;4979374;28;20041;-70
2023/02/09 03:23:06;;;;;;;24.60;12.95;;;;;;;;;;4977110;28;20432;-71
2023/02/09 03:25:38;;;;;;;24.65;12.48;;;;;;;;;;4987578;28;20035;-71
2023/02/09 03:28:08;;;;;;;24.75;12.35;;;;;;;;;;4975882;28;20433;-71
2023/02/09 03:30:35;;;;;;;28.50;12.75;;;;;;;;;;4981170;28;20139;-71
2023/02/09 03:33:03;;;;;;;24.08;12.05;;;;;;;;;;4985509;28;20052;-71
2023/02/09 03:35:35;;;;;;;28.83;13.50;;;;;;;;;;4974962;28;20019;-71
2023/02/09 03:38:05;;;;;;;26.45;13.15;;;;;;;;;;4984540;28;20042;-70
2023/02/09 03:40:32;;;;;;;24.40;13.38;;;;;;;;;;4980326;28;20049;-73
2023/02/09 03:42:57;;;;;;;24.55;12.50;;;;;;;;;;4977733;28;20469;-72
2023/02/09 03:45:24;;;;;;;23.60;13.27;;;;;;;;;;4987717;28;20022;-71
2023/02/09 03:47:50;;;;;;;27.08;12.82;;;;;;;;;;4973714;28;20436;-71
2023/02/09 03:50:16;;;;;;;24.02;13.38;;;;;;;;;;4983298;28;20027;-70
2023/02/09 03:52:42;;;;;;;33.17;14.18;;;;;;;;;;4971261;28;20477;-71
2023/02/09 03:55:08;;;;;;;26.48;12.57;;;;;;;;;;4986158;28;20030;-72
2023/02/09 03:57:35;;;;;;;25.45;12.27;;;;;;;;;;4972689;28;20421;-71
2023/02/09 04:00:02;;;;;;;25.55;12.30;;;;;;;;;;4985269;28;20118;-71
2023/02/09 04:02:28;;;;;;;24.92;12.18;;;;;;;;;;4980751;28;20053;-70
2023/02/09 04:04:54;;;;;;;28.35;12.13;;;;;;;;;;4977828;28;20034;-71
2023/02/09 04:07:20;;;;;;;29.23;14.57;;;;;;;;;;4986495;28;20497;-72
2023/02/09 04:09:46;;;;;;;29.50;12.60;;;;;;;;;;4975005;28;20026;-71
2023/02/09 04:12:12;;;;;;;27.85;14.68;;;;;;;;;;4983643;28;20029;-72
2023/02/09 04:14:38;;;;;;;24.65;12.43;;;;;;;;;;4982055;28;20110;-72
2023/02/09 04:17:04;;;;;;;25.52;12.95;;;;;;;;;;4976301;28;20101;-70
2023/02/09 04:19:30;;;;;;;30.30;15.35;;;;;;;;;;4987252;28;20026;-71
2023/02/09 04:21:56;;;;;;;32.10;14.05;;;;;;;;;;4974586;28;20504;-71
2023/02/09 04:24:22;;;;;;;30.05;13.80;;;;;;;;;;4983488;28;20022;-70
2023/02/09 04:26:48;;;;;;;29.15;12.68;;;;;;;;;;4980772;28;20032;-71
2023/02/09 04:29:14;;;;;;;28.27;13.68;;;;;;;;;;4990095;28;20481;-71
2023/02/09 04:31:40;;;;;;;24.02;12.52;;;;;;;;;;4979640;28;20527;-70
2023/02/09 04:34:06;;;;;;;30.50;14.05;;;;;;;;;;4988590;28;20034;-69
2023/02/09 04:36:32;;;;;;;34.10;14.77;;;;;;;;;;4984368;28;20042;-69
2023/02/09 04:38:58;;;;;;;26.20;14.13;;;;;;;;;;4979957;28;20035;-72
2023/02/09 04:41:24;;;;;;;30.05;14.70;;;;;;;;;;4990724;28;20026;-72
2023/02/09 04:43:50;;;;;;;30.02;14.30;;;;;;;;;;4979055;28;20042;-70
2023/02/09 04:46:17;;;;;;;34.70;13.48;;;;;;;;;;4986800;28;20532;-71
2023/02/09 04:48:43;;;;;;;29.63;13.93;;;;;;;;;;4985090;28;20022;-71
2023/02/09 04:51:09;;;;;;;30.92;15.18;;;;;;;;;;4978774;28;20034;-71
2023/02/09 04:53:35;;;;;;;30.88;14.93;;;;;;;;;;4976594;28;20037;-71
2023/02/09 04:56:01;;;;;;;30.85;15.43;;;;;;;;;;4986636;28;20139;-71
2023/02/09 05:01:29;;;;;;;32.10;14.05;;;;;;;;;;4917216;29;20430;-70
2023/02/09 05:03:55;;;;;;;30.17;14.65;;;;;;;;;;4975853;28;20485;-71
2023/02/09 05:06:21;;;;;;;32.00;16.05;;;;;;;;;;4973849;28;20511;-70
2023/02/09 05:08:48;;;;;;;31.27;15.40;;;;;;;;;;4985010;28;20041;-72
2023/02/09 05:11:14;;;;;;;31.05;15.23;;;;;;;;;;4977965;28;20030;-71
2023/02/09 05:13:41;;;;;;;32.83;14.43;;;;;;;;;;4989768;28;20042;-72
2023/02/09 05:16:13;;;;;;;36.22;16.38;;;;;;;;;;4980165;28;20408;-70
2023/02/09 05:18:39;;;;;;;36.60;17.35;;;;;;;;;;4980305;28;20038;-71
2023/02/09 05:21:05;;;;;;;32.17;15.30;;;;;;;;;;4986462;28;20030;-71
2023/02/09 05:23:31;;;;;;;30.75;14.88;;;;;;;;;;4976815;28;20041;-71
2023/02/09 05:25:57;;;;;;;36.30;16.80;;;;;;;;;;4987815;28;20031;-72
2023/02/09 05:28:23;;;;;;;34.05;17.48;;;;;;;;;;4981402;28;20068;-72
2023/02/09 05:30:52;;;;;;;33.88;15.70;;;;;;;;;;4980732;28;20106;-71
2023/02/09 05:33:19;;;;;;;33.38;15.00;;;;;;;;;;4989106;28;20026;-72
2023/02/09 05:35:45;;;;;;;36.88;17.05;;;;;;;;;;4966652;28;20034;-69
2023/02/09 05:38:11;;;;;;;34.55;16.92;;;;;;;;;;4985103;28;20062;-71
2023/02/09 05:40:37;;;;;;;43.38;16.42;;;;;;;;;;4984065;28;20487;-71
2023/02/09 05:43:03;;;;;;;36.72;16.00;;;;;;;;;;4978436;28;20039;-71
2023/02/09 05:45:29;;;;;;;36.30;16.10;;;;;;;;;;4989188;28;20112;-71
2023/02/09 05:47:55;;;;;;;31.95;15.35;;;;;;;;;;4977452;28;20032;-70
2023/02/09 05:50:21;;;;;;;35.13;16.92;;;;;;;;;;4982906;28;20035;-71
2023/02/09 05:52:47;;;;;;;31.25;16.13;;;;;;;;;;4983289;28;20026;-72
2023/02/09 05:55:13;;;;;;;36.03;15.68;;;;;;;;;;4976959;28;20395;-71
2023/02/09 05:57:39;;;;;;;36.42;14.82;;;;;;;;;;4988465;28;20043;-72
2023/02/09 06:00:06;;;;;;;32.80;15.52;;;;;;;;;;4979013;28;20038;-71
2023/02/09 06:02:32;;;;;;;28.77;14.25;;;;;;;;;;4982357;28;20022;-71
2023/02/09 06:04:58;;;;;;;32.42;15.00;;;;;;;;;;4985772;28;20026;-71
2023/02/09 06:07:24;;;;;;;31.73;15.38;;;;;;;;;;4975554;28;20030;-71
2023/02/09 06:09:50;;;;;;;30.55;15.30;;;;;;;;;;4986986;28;20031;-71
2023/02/09 06:12:16;;;;;;;28.05;14.85;;;;;;;;;;4979148;28;20022;-71
2023/02/09 06:14:42;;;;;;;27.20;14.48;;;;;;;;;;4979258;28;20027;-71
2023/02/09 06:17:08;;;;;;;32.45;15.63;;;;;;;;;;4986796;28;20053;-72
2023/02/09 06:19:34;;;;;;;29.10;14.75;;;;;;;;;;4975797;28;20102;-71
2023/02/09 06:22:00;;;;;;;29.15;13.68;;;;;;;;;;4987041;28;20102;-72
2023/02/09 06:24:26;;;;;;;27.63;12.80;;;;;;;;;;4981780;28;20038;-71
2023/02/09 06:26:52;;;;;;;35.90;15.60;;;;;;;;;;4979690;28;20477;-72
2023/02/09 06:29:18;;;;;;;26.33;13.25;;;;;;;;;;4972276;28;20048;-73
2023/02/09 06:31:44;;;;;;;28.55;13.35;;;;;;;;;;4988826;28;20089;-72
2023/02/09 06:34:10;;;;;;;28.17;13.43;;;;;;;;;;4979814;28;20030;-72
2023/02/09 06:36:36;;;;;;;30.27;14.73;;;;;;;;;;4988921;28;20031;-71
2023/02/09 06:39:05;;;;;;;26.80;14.15;;;;;;;;;;4975794;28;20039;-72
2023/02/09 06:41:31;;;;;;;31.35;14.27;;;;;;;;;;4987747;28;20085;-71
2023/02/09 06:43:57;;;;;;;29.42;14.50;;;;;;;;;;5003588;23;20041;-70
2023/02/09 06:46:23;;;;;;;31.40;15.20;;;;;;;;;;5023038;28;20026;-72
2023/02/09 06:48:49;;;;;;;31.92;16.30;;;;;;;;;;5023256;28;20033;-71
2023/02/09 06:51:16;;;;;;;32.90;16.75;;;;;;;;;;5015448;28;20109;-71
2023/02/09 06:53:42;;;;;;;38.58;17.88;;;;;;;;;;5030752;28;20078;-71
2023/02/09 06:56:09;;;;;;;32.38;16.13;;;;;;;;;;5030719;28;20106;-72
2023/02/09 06:58:36;;;;;;;32.22;16.08;;;;;;;;;;5030242;28;20036;-72
2023/02/09 07:01:06;;;;;;;35.70;16.08;;;;;;;;;;5029079;28;20506;-69
2023/02/09 07:03:32;;;;;;;37.60;16.43;;;;;;;;;;5030487;28;20029;-70
2023/02/09 07:06:09;;;;;;;32.28;15.40;;;;;;;;;;5028971;28;20302;-71
2023/02/09 07:08:35;;;;;;;25.95;14.13;;;;;;;;;;5030329;28;20038;-72
2023/02/09 07:11:05;;;;;;;32.20;15.38;;;;;;;;;;5028500;28;20057;-71
2023/02/09 07:13:32;;;;;;;42.60;20.73;;;;;;;;;;5030682;28;20119;-71
2023/02/09 07:15:59;;;;;;;31.77;15.57;;;;;;;;;;5030590;28;20223;-71
2023/02/09 07:18:25;;;;;;;36.30;15.27;;;;;;;;;;5030262;28;20099;-72
2023/02/09 07:20:55;;;;;;;29.35;14.80;;;;;;;;;;5030764;28;20037;-73
2023/02/09 07:23:21;;;;;;;30.55;16.00;;;;;;;;;;5027368;28;20030;-72
2023/02/09 07:25:47;;;;;;;35.58;15.43;;;;;;;;;;5030578;28;20048;-71
2023/02/09 07:28:13;;;;;;;28.17;14.98;;;;;;;;;;5030041;28;20408;-71
2023/02/09 07:30:40;;;;;;;27.08;14.20;;;;;;;;;;5030853;28;20021;-70
2023/02/09 07:33:07;;;;;;;26.67;14.75;;;;;;;;;;5030648;28;20049;-71
2023/02/09 07:35:33;;;;;;;32.10;15.73;;;;;;;;;;5025045;28;20048;-70
2023/02/09 07:37:59;;;;;;;26.70;15.30;;;;;;;;;;5028632;28;20038;-72
2023/02/09 07:40:25;;;;;;;25.38;15.00;;;;;;;;;;5030104;28;20032;-72
2023/02/09 07:42:51;;;;;;;26.40;13.90;;;;;;;;;;5030007;28;20459;-73
2023/02/09 07:45:17;;;;;;;31.38;15.85;;;;;;;;;;5029826;28;20084;-72
2023/02/09 07:47:43;;;;;;;32.20;14.82;;;;;;;;;;4995993;28;20029;-71
2023/02/09 07:50:10;;;;;;;28.20;14.23;;;;;;;;;;5029429;28;20474;-71
2023/02/09 07:52:36;;;;;;;27.27;13.40;;;;;;;;;;5013164;28;20480;-72
2023/02/09 07:55:02;;;;;;;29.38;14.60;;;;;;;;;;5024143;28;20108;-71
2023/02/09 07:57:28;;;;;;;30.88;15.10;;;;;;;;;;5031323;28;20037;-72
2023/02/09 07:59:54;;;;;;;32.17;15.77;;;;;;;;;;5032239;28;20032;-73
2023/02/09 08:02:37;;;;;;;27.65;15.35;;;;;;;;;;5031936;28;20115;-72
2023/02/09 08:05:04;;;;;;;31.23;16.73;;;;;;;;;;5030336;28;20025;-72
2023/02/09 08:07:31;;;;;;;30.95;16.02;;;;;;;;;;5031526;28;20064;-72
2023/02/09 08:09:57;;;;;;;31.77;16.95;;;;;;;;;;5032804;28;20040;-72
2023/02/09 08:12:58;;;;;;;35.30;16.55;;;;;;;;;;5034045;28;20388;-73
2023/02/09 08:15:13;;;;;;;30.58;16.45;;;;;;;;;;5033908;28;20040;-72
2023/02/09 08:17:39;;;;;;;32.53;17.42;;;;;;;;;;5032018;28;20124;-72
2023/02/09 08:20:07;;;;;;;34.80;17.17;;;;;;;;;;5033771;28;20168;-72
2023/02/09 08:22:35;;;;;;;32.00;17.40;;;;;;;;;;5034089;28;20403;-72
2023/02/09 08:25:02;;;;;;;31.80;17.75;;;;;;;;;;5032350;28;20298;-73
2023/02/09 08:27:29;;;;;;;31.55;16.42;;;;;;;;;;5032855;28;20518;-72
2023/02/09 08:29:55;;;;;;;31.63;17.08;;;;;;;;;;5033760;28;20495;-71
2023/02/09 08:32:21;;;;;;;29.75;16.92;;;;;;;;;;5033833;28;20029;-71
2023/02/09 08:34:47;;;;;;;28.92;15.85;;;;;;;;;;5032192;28;20502;-71
2023/02/09 08:37:13;;;;;;;30.02;15.82;;;;;;;;;;5029197;28;20064;-72
2023/02/09 08:39:39;;;;;;;30.02;16.02;;;;;;;;;;5033752;28;20083;-72
2023/02/09 08:42:05;;;;;;;27.90;17.48;;;;;;;;;;5033423;28;20021;-71
2023/02/09 08:44:31;;;;;;;29.45;16.38;;;;;;;;;;5033313;28;20029;-71
2023/02/09 08:46:57;;;;;;;30.10;17.13;;;;;;;;;;5033227;28;20026;-70
2023/02/09 08:49:23;;;;;;;32.30;17.30;;;;;;;;;;5032608;28;20475;-71
2023/02/09 08:51:49;;;;;;;29.13;15.98;;;;;;;;;;5033326;28;20032;-72
2023/02/09 08:54:15;;;;;;;26.35;15.40;;;;;;;;;;5033096;28;20028;-72
2023/02/09 08:56:42;;;;;;;28.67;15.27;;;;;;;;;;5032960;28;20033;-74
2023/02/09 08:59:08;;;;;;;28.85;16.25;;;;;;;;;;5032548;28;20387;-70
2023/02/09 09:01:34;;;;;;;28.27;16.40;;;;;;;;;;5031891;28;20026;-71
2023/02/09 09:04:00;;;;;;;27.65;16.27;;;;;;;;;;5033240;28;20587;-70
2023/02/09 09:06:26;;;;;;;33.28;16.00;;;;;;;;;;5031941;28;20098;-71
2023/02/09 09:08:52;;;;;;;27.05;16.17;;;;;;;;;;5031942;28;20113;-72
2023/02/09 09:11:19;;;;;;;30.95;15.90;;;;;;;;;;5033069;28;20448;-72
2023/02/09 09:13:45;;;;;;;29.15;16.92;;;;;;;;;;5033005;28;20089;-71
2023/02/09 09:16:15;;;;;;;30.98;16.50;;;;;;;;;;5032903;28;20392;-71
2023/02/09 09:18:43;;;;;;;29.00;16.02;;;;;;;;;;5032160;28;20021;-72
2023/02/09 09:21:09;;;;;;;27.58;15.27;;;;;;;;;;5032583;28;20033;-72
2023/02/09 09:23:35;;;;;;;28.40;15.52;;;;;;;;;;5032342;28;20030;-71
2023/02/09 09:26:01;;;;;;;26.52;16.83;;;;;;;;;;5032623;28;20025;-72
2023/02/09 09:28:27;;;;;;;29.23;15.23;;;;;;;;;;5031808;28;20067;-71
2023/02/09 09:30:53;;;;;;;28.50;15.23;;;;;;;;;;5032654;28;20022;-72
2023/02/09 09:33:19;;;;;;;29.50;15.98;;;;;;;;;;5032042;28;20026;-71
2023/02/09 09:35:45;;;;;;;28.15;15.75;;;;;;;;;;5027799;28;20560;-72
2023/02/09 09:38:11;;;;;;;33.88;16.98;;;;;;;;;;5030166;28;20025;-70
2023/02/09 09:40:39;;;;;;;32.15;16.98;;;;;;;;;;5031746;28;20475;-71
2023/02/09 09:43:07;;;;;;;30.15;15.65;;;;;;;;;;5031706;28;20476;-72
2023/02/09 09:45:34;;;;;;;28.35;16.40;;;;;;;;;;5031360;28;20033;-70
2023/02/09 09:48:01;;;;;;;27.88;16.00;;;;;;;;;;5030943;28;20179;-71
2023/02/09 09:50:35;;;;;;;27.25;15.82;;;;;;;;;;5032389;28;20079;-71
2023/02/09 09:53:04;;;;;;;29.02;15.48;;;;;;;;;;5032018;28;20117;-71
2023/02/09 09:55:31;;;;;;;28.92;15.80;;;;;;;;;;5031840;28;20051;-69
2023/02/09 09:58:02;;;;;;;25.85;14.57;;;;;;;;;;5031439;28;20025;-71
2023/02/09 10:00:31;;;;;;;29.40;14.95;;;;;;;;;;5032017;28;20453;-71
2023/02/09 10:02:57;;;;;;;26.98;14.70;;;;;;;;;;5031980;28;20025;-71
2023/02/09 10:05:25;;;;;;;25.77;15.75;;;;;;;;;;5031624;28;20128;-71
2023/02/09 10:07:57;;;;;;;26.67;15.00;;;;;;;;;;5031033;28;20026;-71
2023/02/09 10:10:42;;;;;;;29.40;16.05;;;;;;;;;;5031814;28;20030;-70
2023/02/09 10:13:28;;;;;;;30.92;16.45;;;;;;;;;;5031767;28;20117;-71
2023/02/09 10:15:55;;;;;;;30.15;15.85;;;;;;;;;;4994875;28;20537;-71
2023/02/09 10:18:24;;;;;;;29.52;16.50;;;;;;;;;;5030696;28;20017;-70
2023/02/09 10:20:50;;;;;;;27.90;16.73;;;;;;;;;;5031661;28;20055;-71
2023/02/09 10:23:36;;;;;;;25.45;14.73;;;;;;;;;;5031785;28;20488;-69
2023/02/09 10:26:02;;;;;;;30.42;15.13;;;;;;;;;;5003847;28;20491;-70
2023/02/09 10:28:30;;;;;;;22.35;14.05;;;;;;;;;;5030868;28;20028;-71
2023/02/09 10:30:58;;;;;;;23.92;13.73;;;;;;;;;;5031717;28;20064;-71
2023/02/09 10:33:25;;;;;;;27.02;14.57;;;;;;;;;;5029860;28;20025;-70
2023/02/09 10:35:56;;;;;;;31.58;14.55;;;;;;;;;;5027628;28;20061;-70
2023/02/09 10:38:22;;;;;;;;;;;;;;;;;;5020180;28;20072;-71
2023/02/09 10:40:48;;;;;;;27.15;14.30;;;;;;;;;;5030869;28;19912;-67
2023/02/09 10:43:34;;;;;;;34.13;13.75;;;;;;;;;;5031119;28;20024;-70
2023/02/09 10:46:02;;;;;;;26.50;14.73;;;;;;;;;;5002857;28;20045;-69
2023/02/09 10:48:38;;;;;;;28.23;14.48;;;;;;;;;;5030523;28;20472;-71
2023/02/09 10:51:11;;;;;;;28.60;15.68;;;;;;;;;;5030928;28;20029;-70
2023/02/09 10:53:55;;;;;;;27.25;14.60;;;;;;;;;;5030992;28;20033;-70
2023/02/09 10:56:23;;;;;;;25.75;13.15;;;;;;;;;;5031222;28;20112;-72
2023/02/09 10:58:51;;;;;;;26.75;13.38;;;;;;;;;;5029979;28;20112;-71
2023/02/09 11:01:21;;;;;;;26.90;13.70;;;;;;;;;;5031180;28;20538;-71
2023/02/09 11:03:58;;;;;;;24.63;12.45;;;;;;;;;;4999174;28;20144;-71
2023/02/09 11:06:24;;;;;;;32.53;13.85;;;;;;;;;;5030678;28;20133;-71
2023/02/09 11:08:52;;;;;;;25.30;13.30;;;;;;;;;;5029854;28;20025;-71
2023/02/09 11:11:21;;;;;;;25.92;13.55;;;;;;;;;;5031119;28;20431;-71
2023/02/09 11:13:47;;;;;;;22.45;13.55;;;;;;;;;;4997880;28;20021;-71
2023/02/09 11:16:19;;;;;;;24.42;13.70;;;;;;;;;;5030812;28;20590;-71
2023/02/09 11:18:51;;;;;;;22.65;12.70;;;;;;;;;;5029825;28;20037;-70
2023/02/09 11:21:22;;;;;;;20.85;12.15;;;;;;;;;;5031000;28;20026;-71
2023/02/09 11:23:48;;;;;;;;;;;;;;;;;;4999929;28;20029;-70
2023/02/09 11:26:26;;;;;;;20.08;10.77;;;;;;;;;;5031247;28;19916;-71
2023/02/09 11:29:11;;;;;;;18.05;10.43;;;;;;;;;;5030683;28;20507;-71
2023/02/09 11:31:49;;;;;;;21.65;11.75;;;;;;;;;;5033223;28;20404;-71
2023/02/09 11:34:21;;;;;;;19.65;10.75;;;;;;;;;;5033466;28;20032;-71
2023/02/09 11:37:06;;;;;;;18.67;10.98;;;;;;;;;;5030596;28;20136;-72
2023/02/09 11:39:51;;;;;;;18.42;11.60;;;;;;;;;;5035019;28;20021;-71
2023/02/09 11:45:10;;;;;;;19.70;11.30;;;;;;;;;;5035135;28;20408;-71
2023/02/09 11:47:44;;;;;;;20.70;10.80;;;;;;;;;;5041792;28;20080;-71
2023/02/09 11:50:16;;;;;;;18.80;11.00;;;;;;;;;;5044676;28;20476;-72
2023/02/09 11:52:50;;;;;;;17.42;10.32;;;;;;;;;;5044535;28;20523;-72
2023/02/09 11:55:25;;;;;;;16.83;10.35;;;;;;;;;;5036853;28;20476;-71
2023/02/09 11:58:12;;;;;;;18.38;10.40;;;;;;;;;;5003018;28;20025;-71
2023/02/09 12:00:42;;;;;;;15.23;9.32;;;;;;;;;;5033156;28;20033;-71
2023/02/09 12:03:13;;;;;;;14.82;9.27;;;;;;;;;;5034028;28;20029;-71
2023/02/09 12:05:41;;;;;;;19.60;9.90;;;;;;;;;;5034191;28;20037;-71
2023/02/09 12:08:09;;;;;;;18.55;10.00;;;;;;;;;;5033252;28;20088;-71
2023/02/09 12:10:42;;;;;;;17.58;9.15;;;;;;;;;;5026353;28;20026;-71
2023/02/09 12:13:27;;;;;;;16.40;9.45;;;;;;;;;;5033891;28;20018;-71
2023/02/09 12:15:57;;;;;;;16.95;9.25;;;;;;;;;;5004037;28;20120;-71
2023/02/09 12:18:25;;;;;;;20.13;11.95;;;;;;;;;;5033265;28;20082;-72
2023/02/09 12:20:55;;;;;;;18.27;10.27;;;;;;;;;;5033764;28;20033;-71
2023/02/09 12:23:31;;;;;;;16.88;10.30;;;;;;;;;;5033714;28;20086;-72
2023/02/09 12:25:58;;;;;;;23.40;11.45;;;;;;;;;;5004972;28;20064;-70
2023/02/09 12:28:27;;;;;;;16.73;10.45;;;;;;;;;;5032994;28;20041;-71
2023/02/09 12:30:53;;;;;;;17.08;11.27;;;;;;;;;;5033471;28;20044;-71
2023/02/09 12:33:28;;;;;;;14.75;10.27;;;;;;;;;;5033501;28;20451;-71
2023/02/09 12:36:00;;;;;;;16.20;9.70;;;;;;;;;;5029963;28;20025;-71
2023/02/09 12:38:42;;;;;;;17.58;9.43;;;;;;;;;;5032701;28;20038;-70
2023/02/09 12:41:08;;;;;;;16.30;9.93;;;;;;;;;;5027352;28;20526;-72
2023/02/09 12:43:35;;;;;;;16.88;10.10;;;;;;;;;;5033152;28;20036;-72
2023/02/09 12:46:10;;;;;;;18.35;11.15;;;;;;;;;;5033749;28;20034;-72
2023/02/09 12:49:09;;;;;;;17.77;9.98;;;;;;;;;;5032716;28;20498;-72
2023/02/09 12:51:44;;;;;;;20.65;11.02;;;;;;;;;;4973618;28;20419;-71
2023/02/09 12:54:25;;;;;;;20.52;11.75;;;;;;;;;;5016249;28;20457;-72
2023/02/09 12:56:51;;;;;;;;;;;;;;;;;;5013766;28;20096;-73
2023/02/09 12:59:19;;;;;;;17.65;10.30;;;;;;;;;;5010332;28;20403;-71
2023/02/09 13:02:03;;;;;;;19.05;10.35;;;;;;;;;;5011959;28;20033;-71
2023/02/09 13:04:31;;;;;;;22.58;12.70;;;;;;;;;;5011777;28;20026;-72
2023/02/09 13:06:57;;;;;;;18.67;11.35;;;;;;;;;;5011613;28;20052;-70
2023/02/09 13:09:34;;;;;;;19.65;11.32;;;;;;;;;;5010125;28;20033;-71
2023/02/09 13:12:00;;;;;;;19.35;11.68;;;;;;;;;;5012998;28;20053;-71
2023/02/09 13:14:26;;;;;;;21.65;12.05;;;;;;;;;;5013409;28;20068;-71
2023/02/09 13:17:03;;;;;;;18.45;11.48;;;;;;;;;;5012332;28;20034;-71
2023/02/09 13:19:44;;;;;;;18.38;10.80;;;;;;;;;;5013322;28;20567;-71
2023/02/09 13:22:19;;;;;;;22.77;11.52;;;;;;;;;;5013020;28;20484;-71
2023/02/09 13:24:53;;;;;;;22.58;11.98;;;;;;;;;;5012046;28;20407;-71
2023/02/09 13:27:22;;;;;;;19.75;11.20;;;;;;;;;;5012655;28;20026;-71
2023/02/09 13:29:49;;;;;;;23.77;12.18;;;;;;;;;;5012945;28;20025;-71
2023/02/09 13:32:15;;;;;;;18.80;11.57;;;;;;;;;;5013422;28;20104;-68
2023/02/09 13:35:00;;;;;;;23.20;11.30;;;;;;;;;;5013045;28;20036;-72
2023/02/09 13:37:29;;;;;;;21.70;11.00;;;;;;;;;;5011019;28;20033;-71
2023/02/09 13:39:56;;;;;;;17.80;11.23;;;;;;;;;;5012657;28;20030;-70
2023/02/09 13:42:25;;;;;;;19.73;10.90;;;;;;;;;;5013138;28;20025;-69
2023/02/09 13:44:52;;;;;;;19.40;11.38;;;;;;;;;;5012310;28;20041;-71
2023/02/09 13:47:18;;;;;;;23.08;11.65;;;;;;;;;;5011456;28;20026;-71
2023/02/09 13:50:07;;;;;;;22.02;12.15;;;;;;;;;;5010075;28;20018;-71
2023/02/09 13:52:34;;;;;;;25.80;11.50;;;;;;;;;;5001667;28;20038;-71
2023/02/09 13:55:09;;;;;;;22.00;11.23;;;;;;;;;;5011018;28;20018;-71
2023/02/09 13:57:37;;;;;;;25.60;11.82;;;;;;;;;;5010294;28;20081;-72
2023/02/09 14:00:08;;;;;;;19.48;10.50;;;;;;;;;;5011964;28;20105;-71
2023/02/09 14:02:35;;;;;;;21.00;11.38;;;;;;;;;;5011301;28;20022;-69
2023/02/09 14:05:03;;;;;;;21.38;12.40;;;;;;;;;;5012540;28;20034;-70
2023/02/09 14:07:33;;;;;;;24.80;11.85;;;;;;;;;;5011855;28;20526;-71
2023/02/09 14:10:10;;;;;;;20.38;11.90;;;;;;;;;;5012416;28;20079;-69
2023/02/09 14:12:51;;;;;;;24.45;12.18;;;;;;;;;;5012365;28;20089;-69
2023/02/09 14:18:25;;;;;;;24.25;12.85;;;;;;;;;;5011721;28;20036;-71
2023/02/09 14:20:59;;;;;;;44.72;12.57;;;;;;;;;;5012368;28;20097;-72
2023/02/09 14:23:26;;;;;;;22.20;12.48;;;;;;;;;;5011999;28;20506;-70
2023/02/09 14:26:12;;;;;;;23.58;13.68;;;;;;;;;;5012275;28;20026;-71
2023/02/09 14:28:39;;;;;;;19.55;12.13;;;;;;;;;;5000837;28;20117;-70
2023/02/09 14:31:06;;;;;;;21.60;13.05;;;;;;;;;;5011932;28;20018;-72
2023/02/09 14:33:34;;;;;;;23.75;12.48;;;;;;;;;;5011777;28;20439;-71
2023/02/09 14:36:01;;;;;;;28.85;13.20;;;;;;;;;;5011737;28;20564;-71
2023/02/09 14:38:38;;;;;;;24.60;12.95;;;;;;;;;;5011140;28;20107;-73
2023/02/09 14:41:17;;;;;;;23.27;12.88;;;;;;;;;;5012156;28;20030;-71
2023/02/09 14:43:43;;;;;;;24.02;13.30;;;;;;;;;;5011570;28;20104;-70